Observation data for Abernathy on 03/13/2018      Previous  Date  Next       Current Mesonet Observations  Soil Data  Daily Summary Page  Observations in Plain Language
KARS 130500Z 16008KT 04/M09 A3023 RMK A01 T00431088  RH  038%=      5-min Rain = 0
KARS 130505Z 16008KT 04/M09 A3023 RMK A01 T00421088  RH  038%=      5-min Rain = 0
KARS 130510Z 16007KT 04/M09 A3023 RMK A01 T00401087  RH  039%=      5-min Rain = 0
KARS 130515Z 16007KT 04/M09 A3023 RMK A01 T00391086  RH  040%=      5-min Rain = 0
KARS 130520Z 15007KT 04/M09 A3023 RMK A01 T00381086  RH  040%=      5-min Rain = 0
KARS 130525Z 16006KT 04/M09 A3023 RMK A01 T00361086  RH  040%=      5-min Rain = 0
KARS 130530Z 17006KT 04/M09 A3023 RMK A01 T00351086  RH  041%=      5-min Rain = 0
KARS 130535Z 17007KT 03/M08 A3022 RMK A01 T00311084  RH  042%=      5-min Rain = 0
KARS 130540Z 17006KT 03/M08 A3022 RMK A01 T00281084  RH  043%=      5-min Rain = 0
KARS 130545Z 17005KT 03/M08 A3022 RMK A01 T00251084  RH  044%=      5-min Rain = 0
KARS 130550Z 17005KT 03/M08 A3022 RMK A01 T00251084  RH  044%=      5-min Rain = 0
KARS 130555Z 18005KT 02/M09 A3022 RMK A01 T00231085  RH  045%=      5-min Rain = 0
KARS 130600Z 18004KT 02/M09 A3022 RMK A01 T00211087  RH  045%=      5-min Rain = 0
KARS 130605Z 18005KT 02/M09 A3023 RMK A01 T00201086  RH  045%=      5-min Rain = 0
KARS 130610Z 18006KT 02/M08 A3022 RMK A01 T00181084  RH  046%=      5-min Rain = 0
KARS 130615Z 19006KT 02/M08 A3023 RMK A01 T00171084  RH  047%=      5-min Rain = 0
KARS 130620Z 19006KT 02/M08 A3022 RMK A01 T00161082  RH  048%=      5-min Rain = 0
KARS 130625Z 19006KT 02/M08 A3022 RMK A01 T00171082  RH  048%=      5-min Rain = 0
KARS 130630Z 19006KT 02/M08 A3022 RMK A01 T00171083  RH  047%=      5-min Rain = 0
KARS 130635Z 19006KT 02/M08 A3022 RMK A01 T00161083  RH  047%=      5-min Rain = 0
KARS 130640Z 18006KT 01/M08 A3022 RMK A01 T00131084  RH  048%=      5-min Rain = 0
KARS 130645Z 19005KT 01/M08 A3023 RMK A01 T00101084  RH  049%=      5-min Rain = 0
KARS 130650Z 19005KT 01/M08 A3023 RMK A01 T00101083  RH  050%=      5-min Rain = 0
KARS 130655Z 16005KT 01/M08 A3022 RMK A01 T00101084  RH  049%=      5-min Rain = 0
KARS 130700Z 11007KT 01/M09 A3023 RMK A01 T00081089  RH  048%=      5-min Rain = 0
KARS 130705Z 16006KT 02/M09 A3022 RMK A01 T00161085  RH  047%=      5-min Rain = 0
KARS 130710Z 15005KT 02/M09 A3022 RMK A01 T00201086  RH  045%=      5-min Rain = 0
KARS 130715Z 15006KT 02/M09 A3022 RMK A01 T00171089  RH  045%=      5-min Rain = 0
KARS 130720Z 16006KT 02/M09 A3022 RMK A01 T00151087  RH  047%=      5-min Rain = 0
KARS 130725Z 17005KT 01/M09 A3022 RMK A01 T00141086  RH  047%=      5-min Rain = 0
KARS 130730Z 17005KT 01/M09 A3022 RMK A01 T00141085  RH  048%=      5-min Rain = 0
KARS 130735Z 16005KT 01/M09 A3023 RMK A01 T00131088  RH  047%=      5-min Rain = 0
KARS 130740Z 18005KT 01/M09 A3023 RMK A01 T00101087  RH  048%=      5-min Rain = 0
KARS 130745Z 18006KT 01/M08 A3022 RMK A01 T00071084  RH  051%=      5-min Rain = 0
KARS 130750Z 17004KT 00/M08 A3022 RMK A01 T00041084  RH  051%=      5-min Rain = 0
KARS 130755Z 17005KT 00/M09 A3022 RMK A01 T00031087  RH  051%=      5-min Rain = 0
KARS 130800Z 17005KT 00/M09 A3022 RMK A01 T00041086  RH  051%=      5-min Rain = 0
KARS 130805Z 17005KT 01/M08 A3022 RMK A01 T00061084  RH  051%=      5-min Rain = 0
KARS 130810Z 16005KT 01/M09 A3022 RMK A01 T00081086  RH  049%=      5-min Rain = 0
KARS 130815Z 16004KT 01/M09 A3022 RMK A01 T00081087  RH  049%=      5-min Rain = 0
KARS 130820Z 16005KT 01/M09 A3022 RMK A01 T00071087  RH  049%=      5-min Rain = 0
KARS 130825Z 16005KT 01/M09 A3022 RMK A01 T00071086  RH  050%=      5-min Rain = 0
KARS 130830Z 16005KT 01/M09 A3022 RMK A01 T00071087  RH  049%=      5-min Rain = 0
KARS 130835Z 15005KT 01/M09 A3022 RMK A01 T00071087  RH  049%=      5-min Rain = 0
KARS 130840Z 16005KT 01/M09 A3021 RMK A01 T00061088  RH  049%=      5-min Rain = 0
KARS 130845Z 17005KT 01/M09 A3021 RMK A01 T00071086  RH  050%=      5-min Rain = 0
KARS 130850Z 17005KT 01/M08 A3021 RMK A01 T00081084  RH  050%=      5-min Rain = 0
KARS 130855Z 17004KT 01/M08 A3021 RMK A01 T00091084  RH  050%=      5-min Rain = 0
KARS 130900Z 18004KT 01/M09 A3022 RMK A01 T00071086  RH  050%=      5-min Rain = 0
KARS 130905Z 18005KT 00/M09 A3022 RMK A01 T00041085  RH  051%=      5-min Rain = 0
KARS 130910Z 17005KT 00/M08 A3022 RMK A01 T00041084  RH  052%=      5-min Rain = 0
KARS 130915Z 16005KT 00/M08 A3022 RMK A01 T00021084  RH  052%=      5-min Rain = 0
KARS 130920Z 15005KT 00/M08 A3022 RMK A01 T00031084  RH  052%=      5-min Rain = 0
KARS 130925Z 14004KT 00/M09 A3022 RMK A01 T00021088  RH  050%=      5-min Rain = 0
KARS 130930Z 12004KT 00/09 A3023 RMK A01 T00-00-87  RH  052%=      5-min Rain = 0
KARS 130935Z 12004KT 00/09 A3023 RMK A01 T00-00-87  RH  052%=      5-min Rain = 0
KARS 130940Z 12004KT M00/M09 A3023 RMK A01 T10021088  RH  052%=      5-min Rain = 0
KARS 130945Z 13004KT M00/M09 A3023 RMK A01 T10011087  RH  052%=      5-min Rain = 0
KARS 130950Z 14003KT M00/M09 A3023 RMK A01 T10011087  RH  052%=      5-min Rain = 0
KARS 130955Z 14004KT M00/M09 A3023 RMK A01 T10011085  RH  053%=      5-min Rain = 0
KARS 131000Z 14004KT M00/M09 A3022 RMK A01 T10011085  RH  053%=      5-min Rain = 0
KARS 131005Z 12003KT M00/M08 A3023 RMK A01 T10011083  RH  054%=      5-min Rain = 0
KARS 131010Z 11002KT M00/M08 A3023 RMK A01 T10011084  RH  054%=      5-min Rain = 0
KARS 131015Z 11002KT M00/M09 A3023 RMK A01 T10041087  RH  054%=      5-min Rain = 0
KARS 131020Z 10003KT M01/M09 A3023 RMK A01 T10061085  RH  055%=      5-min Rain = 0
KARS 131025Z 09003KT M01/M08 A3023 RMK A01 T10081084  RH  056%=      5-min Rain = 0
KARS 131030Z 07003KT M01/M08 A3023 RMK A01 T10101084  RH  057%=      5-min Rain = 0
KARS 131035Z 06003KT M01/M08 A3023 RMK A01 T10141083  RH  059%=      5-min Rain = 0
KARS 131040Z 05004KT M02/M08 A3023 RMK A01 T10181083  RH  061%=      5-min Rain = 0
KARS 131045Z 05004KT M02/M08 A3023 RMK A01 T10221081  RH  064%=      5-min Rain = 0
KARS 131050Z 05004KT M02/M08 A3024 RMK A01 T10241082  RH  064%=      5-min Rain = 0
KARS 131055Z 06003KT M03/M08 A3024 RMK A01 T10251082  RH  064%=      5-min Rain = 0
KARS 131100Z 06003KT M03/M08 A3024 RMK A01 T10251083  RH  064%=      5-min Rain = 0
KARS 131105Z 07003KT M03/M08 A3024 RMK A01 T10251083  RH  064%=      5-min Rain = 0
KARS 131110Z 08003KT M03/M08 A3024 RMK A01 T10251084  RH  064%=      5-min Rain = 0
KARS 131115Z 08003KT M02/M08 A3024 RMK A01 T10231084  RH  063%=      5-min Rain = 0
KARS 131120Z 08004KT M02/M08 A3024 RMK A01 T10221084  RH  062%=      5-min Rain = 0
KARS 131125Z 08004KT M02/M08 A3024 RMK A01 T10211083  RH  063%=      5-min Rain = 0
KARS 131130Z 07005KT M02/M08 A3024 RMK A01 T10201083  RH  062%=      5-min Rain = 0
KARS 131135Z 07005KT M02/M08 A3025 RMK A01 T10201081  RH  063%=      5-min Rain = 0
KARS 131140Z 06004KT M02/M08 A3025 RMK A01 T10201082  RH  063%=      5-min Rain = 0
KARS 131145Z 05004KT M02/M08 A3025 RMK A01 T10231082  RH  064%=      5-min Rain = 0
KARS 131150Z 06004KT M03/M08 A3025 RMK A01 T10251081  RH  065%=      5-min Rain = 0
KARS 131155Z 07003KT M03/M08 A3025 RMK A01 T10281083  RH  066%=      5-min Rain = 0
KARS 131200Z 08002KT M03/M08 A3025 RMK A01 T10281081  RH  067%=      5-min Rain = 0
KARS 131205Z 07002KT M03/M08 A3026 RMK A01 T10261080  RH  066%=      5-min Rain = 0
KARS 131210Z 06001KT M02/M08 A3026 RMK A01 T10241078  RH  066%=      5-min Rain = 0
KARS 131215Z 07002KT M02/M08 A3026 RMK A01 T10221077  RH  066%=      5-min Rain = 0
KARS 131220Z 07002KT M02/M08 A3027 RMK A01 T10211076  RH  066%=      5-min Rain = 0
KARS 131225Z 06003KT M02/M08 A3027 RMK A01 T10201076  RH  066%=      5-min Rain = 0
KARS 131230Z 05004KT M02/M08 A3028 RMK A01 T10221077  RH  066%=      5-min Rain = 0
KARS 131235Z 07005KT M02/M08 A3028 RMK A01 T10241077  RH  067%=      5-min Rain = 0
KARS 131240Z 08005KT M03/M08 A3027 RMK A01 T10271078  RH  068%=      5-min Rain = 0
KARS 131245Z 08006KT M03/M08 A3028 RMK A01 T10281078  RH  068%=      5-min Rain = 0
KARS 131250Z 08007KT M03/M08 A3028 RMK A01 T10271079  RH  067%=      5-min Rain = 0
KARS 131255Z 08006KT M03/M08 A3028 RMK A01 T10261079  RH  067%=      5-min Rain = 0
KARS 131300Z 08004KT M03/M08 A3028 RMK A01 T10261080  RH  066%=      5-min Rain = 0
KARS 131305Z 09003KT M03/M08 A3028 RMK A01 T10281080  RH  067%=      5-min Rain = 0
KARS 131310Z 10002KT M03/M08 A3028 RMK A01 T10271078  RH  068%=      5-min Rain = 0
KARS 131315Z 10002KT M02/M08 A3028 RMK A01 T10231075  RH  068%=      5-min Rain = 0
KARS 131320Z 08003KT M02/M07 A3028 RMK A01 T10181072  RH  066%=      5-min Rain = 0
KARS 131325Z 08004KT M01/M07 A3028 RMK A01 T10141071  RH  065%=      5-min Rain = 0
KARS 131330Z 08006KT M01/M07 A3029 RMK A01 T10091067  RH  065%=      5-min Rain = 0
KARS 131335Z 08006KT M00/M07 A3029 RMK A01 T10041065  RH  064%=      5-min Rain = 0
KARS 131340Z 08006KT 00/M06 A3029 RMK A01 T00011064  RH  062%=      5-min Rain = 0
KARS 131345Z 09006KT 01/M06 A3029 RMK A01 T00081060  RH  060%=      5-min Rain = 0
KARS 131350Z 09006KT 02/M06 A3029 RMK A01 T00151060  RH  057%=      5-min Rain = 0
KARS 131355Z 09007KT 02/M06 A303 RMK A01 T00201058  RH  056%=      5-min Rain = 0
KARS 131400Z 10008KT 02/M06 A303 RMK A01 T00241057  RH  055%=      5-min Rain = 0
KARS 131405Z 10007KT 03/M06 A303 RMK A01 T00301056  RH  053%=      5-min Rain = 0
KARS 131410Z 11008KT 04/M06 A303 RMK A01 T00351055  RH  052%=      5-min Rain = 0
KARS 131415Z 12008KT 04/M05 A303 RMK A01 T00411053  RH  051%=      5-min Rain = 0
KARS 131420Z 12008KT 05/M05 A303 RMK A01 T00451053  RH  049%=      5-min Rain = 0
KARS 131425Z 12009KT 05/M05 A3031 RMK A01 T00481053  RH  048%=      5-min Rain = 0
KARS 131430Z 12010KT 05/M05 A3031 RMK A01 T00491052  RH  048%=      5-min Rain = 0
KARS 131435Z 13009KT 05/M05 A3031 RMK A01 T00541051  RH  047%=      5-min Rain = 0
KARS 131440Z 13010KT 06/M05 A3031 RMK A01 T00581050  RH  046%=      5-min Rain = 0
KARS 131445Z 13010KT 06/M05 A3031 RMK A01 T00621049  RH  045%=      5-min Rain = 0
KARS 131450Z 13010KT 06/M05 A3031 RMK A01 T00641050  RH  044%=      5-min Rain = 0
KARS 131455Z 13010KT 07/M05 A3031 RMK A01 T00671049  RH  044%=      5-min Rain = 0
KARS 131500Z 14011KT 07/M05 A3031 RMK A01 T00691050  RH  043%=      5-min Rain = 0
KARS 131505Z 14011KT 07/M05 A3031 RMK A01 T00701050  RH  042%=      5-min Rain = 0
KARS 131510Z 14011KT 07/M05 A3031 RMK A01 T00731049  RH  042%=      5-min Rain = 0
KARS 131515Z 14011KT 08/M05 A3031 RMK A01 T00761049  RH  041%=      5-min Rain = 0
KARS 131520Z 13011KT 08/M05 A3032 RMK A01 T00791048  RH  040%=      5-min Rain = 0
KARS 131525Z 14010KT 08/M05 A3032 RMK A01 T00831049  RH  039%=      5-min Rain = 0
KARS 131530Z 13011KT 08/M05 A3032 RMK A01 T00831049  RH  039%=      5-min Rain = 0
KARS 131535Z 13011KT 08/M05 A3032 RMK A01 T00841048  RH  039%=      5-min Rain = 0
KARS 131540Z 14010KT 09/M05 A3032 RMK A01 T00891047  RH  038%=      5-min Rain = 0
KARS 131545Z 14011KT 09/M05 A3032 RMK A01 T00931047  RH  037%=      5-min Rain = 0
KARS 131550Z 14011KT 10/M05 A3032 RMK A01 T00961047  RH  036%=      5-min Rain = 0
KARS 131555Z 14012KT 10/M05 A3032 RMK A01 T00981046  RH  036%=      5-min Rain = 0
KARS 131600Z 13011KT 10/M05 A3032 RMK A01 T01031046  RH  035%=      5-min Rain = 0
KARS 131605Z 14012KT 11/M05 A3033 RMK A01 T01061046  RH  034%=      5-min Rain = 0
KARS 131610Z 14012KT 11/M05 A3033 RMK A01 T01081046  RH  034%=      5-min Rain = 0
KARS 131615Z 13012G17KT 11/M05 A3032 RMK A01 T01101045  RH  033%=      5-min Rain = 0
KARS 131620Z 15012KT 11/M05 A3033 RMK A01 T01111045  RH  033%=      5-min Rain = 0
KARS 131625Z 15011KT 11/M05 A3033 RMK A01 T01121046  RH  033%=      5-min Rain = 0
KARS 131630Z 15011G17KT 12/M04 A3033 RMK A01 T01151044  RH  033%=      5-min Rain = 0
KARS 131635Z 13012KT 12/M04 A3032 RMK A01 T01181044  RH  032%=      5-min Rain = 0
KARS 131640Z 13011KT 12/M05 A3032 RMK A01 T01201045  RH  032%=      5-min Rain = 0
KARS 131645Z 13013KT 12/M04 A3032 RMK A01 T01201044  RH  032%=      5-min Rain = 0
KARS 131650Z 13012KT 12/M04 A3033 RMK A01 T01241044  RH  031%=      5-min Rain = 0
KARS 131655Z 12012KT 13/M04 A3033 RMK A01 T01251043  RH  031%=      5-min Rain = 0
KARS 131700Z 13011G16KT 13/M04 A3032 RMK A01 T01291044  RH  030%=      5-min Rain = 0
KARS 131705Z 13012KT 13/M04 A3033 RMK A01 T01281044  RH  030%=      5-min Rain = 0
KARS 131710Z 13012KT 13/M04 A3033 RMK A01 T01281044  RH  030%=      5-min Rain = 0
KARS 131715Z 14011KT 13/M05 A3032 RMK A01 T01291045  RH  030%=      5-min Rain = 0
KARS 131720Z 13010G16KT 13/M05 A3032 RMK A01 T01281046  RH  030%=      5-min Rain = 0
KARS 131725Z 11011KT 13/M05 A3032 RMK A01 T01261047  RH  030%=      5-min Rain = 0
KARS 131730Z 13011G17KT 13/M05 A3032 RMK A01 T01271046  RH  030%=      5-min Rain = 0
KARS 131735Z 14009G14KT 13/M05 A3032 RMK A01 T01301046  RH  029%=      5-min Rain = 0
KARS 131740Z 13010G15KT 13/M05 A3032 RMK A01 T01301048  RH  029%=      5-min Rain = 0
KARS 131745Z 15009KT 13/M05 A3031 RMK A01 T01331046  RH  028%=      5-min Rain = 0
KARS 131750Z 14010G17KT 14/M05 A3031 RMK A01 T01371046  RH  028%=      5-min Rain = 0
KARS 131755Z 13010G16KT 14/M05 A3031 RMK A01 T01361046  RH  028%=      5-min Rain = 0
KARS 131800Z 12010KT 14/M04 A3031 RMK A01 T01421044  RH  027%=      5-min Rain = 0
KARS 131805Z 13011KT 14/M05 A3031 RMK A01 T01411046  RH  027%=      5-min Rain = 0
KARS 131810Z 12011G17KT 14/M05 A3031 RMK A01 T01391046  RH  028%=      5-min Rain = 0
KARS 131815Z 12011G16KT 14/M05 A3031 RMK A01 T01381046  RH  028%=      5-min Rain = 0
KARS 131820Z 14009G15KT 14/M05 A3031 RMK A01 T01411047  RH  027%=      5-min Rain = 0
KARS 131825Z 13009KT 14/M05 A3031 RMK A01 T01431047  RH  027%=      5-min Rain = 0
KARS 131830Z 14010KT 14/M05 A3031 RMK A01 T01401049  RH  027%=      5-min Rain = 0
KARS 131835Z 15007G13KT 14/M05 A303 RMK A01 T01391049  RH  027%=      5-min Rain = 0
KARS 131840Z 13009G15KT 14/M05 A303 RMK A01 T01391049  RH  027%=      5-min Rain = 0
KARS 131845Z 13009G15KT 14/M05 A303 RMK A01 T01381048  RH  027%=      5-min Rain = 0
KARS 131850Z 15009KT 14/M05 A303 RMK A01 T01421049  RH  026%=      5-min Rain = 0
KARS 131855Z 15009KT 15/M05 A303 RMK A01 T01461050  RH  026%=      5-min Rain = 0
KARS 131900Z 14007KT 15/M05 A303 RMK A01 T01491048  RH  025%=      5-min Rain = 0
KARS 131905Z 15011KT 15/M05 A303 RMK A01 T01511050  RH  025%=      5-min Rain = 0
KARS 131910Z 13008G13KT 15/M05 A3029 RMK A01 T01481049  RH  025%=      5-min Rain = 0
KARS 131915Z 11009G15KT 15/M05 A3029 RMK A01 T01491048  RH  025%=      5-min Rain = 0
KARS 131920Z 13012KT 15/M05 A3029 RMK A01 T01541049  RH  024%=      5-min Rain = 0
KARS 131925Z 12008G13KT 15/M05 A3029 RMK A01 T01501052  RH  025%=      5-min Rain = 0
KARS 131930Z 12008KT 15/M05 A3029 RMK A01 T01511051  RH  025%=      5-min Rain = 0
KARS 131935Z 13009G15KT 15/M05 A3029 RMK A01 T01511052  RH  024%=      5-min Rain = 0
KARS 131940Z 09008G14KT 15/M05 A3028 RMK A01 T01501050  RH  025%=      5-min Rain = 0
KARS 131945Z 14009G17KT 15/M06 A3028 RMK A01 T01511055  RH  024%=      5-min Rain = 0
KARS 131950Z 12007G12KT 15/M05 A3027 RMK A01 T01521054  RH  024%=      5-min Rain = 0
KARS 131955Z 15010KT 15/M06 A3027 RMK A01 T01541057  RH  023%=      5-min Rain = 0
KARS 132000Z 11011G17KT 16/M05 A3027 RMK A01 T01551054  RH  023%=      5-min Rain = 0
KARS 132005Z 10010G16KT 15/M06 A3027 RMK A01 T01531055  RH  023%=      5-min Rain = 0
KARS 132010Z 13010G15KT 15/M06 A3027 RMK A01 T01541055  RH  023%=      5-min Rain = 0
KARS 132015Z 11008G13KT 15/M06 A3027 RMK A01 T01541057  RH  023%=      5-min Rain = 0
KARS 132020Z 13013KT 16/M06 A3027 RMK A01 T01591057  RH  022%=      5-min Rain = 0
KARS 132025Z 14009G14KT 16/M06 A3026 RMK A01 T01611059  RH  021%=      5-min Rain = 0
KARS 132030Z 11009G15KT 16/M06 A3026 RMK A01 T01561058  RH  022%=      5-min Rain = 0
KARS 132035Z 13009KT 16/M06 A3026 RMK A01 T01591057  RH  022%=      5-min Rain = 0
KARS 132040Z 11011G16KT 16/M06 A3026 RMK A01 T01581058  RH  022%=      5-min Rain = 0
KARS 132045Z 12012KT 16/M06 A3027 RMK A01 T01601060  RH  022%=      5-min Rain = 0
KARS 132050Z 14008G15KT 16/M06 A3026 RMK A01 T01601059  RH  022%=      5-min Rain = 0
KARS 132055Z 15008G13KT 16/M06 A3026 RMK A01 T01631060  RH  021%=      5-min Rain = 0
KARS 132100Z 12008G15KT 16/M06 A3026 RMK A01 T01601061  RH  021%=      5-min Rain = 0
KARS 132105Z 12012G17KT 16/M06 A3026 RMK A01 T01601060  RH  022%=      5-min Rain = 0
KARS 132110Z 11007KT 16/M06 A3026 RMK A01 T01571061  RH  022%=      5-min Rain = 0
KARS 132115Z 13012G17KT 16/M06 A3026 RMK A01 T01591060  RH  022%=      5-min Rain = 0
KARS 132120Z 13012G17KT 16/M06 A3026 RMK A01 T01631062  RH  021%=      5-min Rain = 0
KARS 132125Z 12008G13KT 16/M06 A3025 RMK A01 T01621062  RH  021%=      5-min Rain = 0
KARS 132130Z 13012G17KT 16/M06 A3025 RMK A01 T01641063  RH  021%=      5-min Rain = 0
KARS 132135Z 12009G14KT 16/M06 A3025 RMK A01 T01611063  RH  021%=      5-min Rain = 0
KARS 132140Z 14007KT 16/M06 A3025 RMK A01 T01611061  RH  021%=      5-min Rain = 0
KARS 132145Z 11008G14KT 16/M06 A3025 RMK A01 T01591060  RH  022%=      5-min Rain = 0
KARS 132150Z 12013G18KT 16/M06 A3025 RMK A01 T01631060  RH  021%=      5-min Rain = 0
KARS 132155Z 12010G15KT 16/M06 A3025 RMK A01 T01611061  RH  021%=      5-min Rain = 0
KARS 132200Z 11011G17KT 16/M06 A3025 RMK A01 T01611061  RH  021%=      5-min Rain = 0
KARS 132205Z 13009G15KT 16/M06 A3025 RMK A01 T01601062  RH  021%=      5-min Rain = 0
KARS 132210Z 13010G15KT 15/M06 A3025 RMK A01 T01541063  RH  022%=      5-min Rain = 0
KARS 132215Z 14010KT 15/M06 A3025 RMK A01 T01531062  RH  022%=      5-min Rain = 0
KARS 132220Z 16010KT 16/M06 A3025 RMK A01 T01581061  RH  022%=      5-min Rain = 0
KARS 132225Z 15010G18KT 16/M06 A3025 RMK A01 T01581061  RH  022%=      5-min Rain = 0
KARS 132230Z 10012G18KT 16/M06 A3025 RMK A01 T01621061  RH  021%=      5-min Rain = 0
KARS 132235Z 12011G17KT 16/M06 A3025 RMK A01 T01611062  RH  021%=      5-min Rain = 0
KARS 132240Z 13007G13KT 16/M06 A3025 RMK A01 T01591062  RH  021%=      5-min Rain = 0
KARS 132245Z 14012G17KT 16/M06 A3025 RMK A01 T01611063  RH  021%=      5-min Rain = 0
KARS 132250Z 15009G17KT 16/M06 A3025 RMK A01 T01571062  RH  022%=      5-min Rain = 0
KARS 132255Z 13011G17KT 16/M06 A3025 RMK A01 T01581062  RH  021%=      5-min Rain = 0
KARS 132300Z 10009G14KT 16/M06 A3024 RMK A01 T01561062  RH  022%=      5-min Rain = 0
KARS 132305Z 11010KT 16/M06 A3024 RMK A01 T01551063  RH  022%=      5-min Rain = 0
KARS 132310Z 13008G13KT 16/M06 A3024 RMK A01 T01561063  RH  022%=      5-min Rain = 0
KARS 132315Z 12010KT 16/M06 A3025 RMK A01 T01571064  RH  021%=      5-min Rain = 0
KARS 132320Z 11009KT 16/M06 A3025 RMK A01 T01551064  RH  022%=      5-min Rain = 0
KARS 132325Z 12009KT 16/M06 A3025 RMK A01 T01561064  RH  021%=      5-min Rain = 0
KARS 132330Z 13010KT 16/M06 A3024 RMK A01 T01561063  RH  022%=      5-min Rain = 0
KARS 132335Z 13008KT 16/M06 A3024 RMK A01 T01551064  RH  022%=      5-min Rain = 0
KARS 132340Z 15011KT 15/M06 A3024 RMK A01 T01541064  RH  022%=      5-min Rain = 0
KARS 132345Z 12011KT 15/M06 A3024 RMK A01 T01531063  RH  022%=      5-min Rain = 0
KARS 132350Z 13011KT 15/M06 A3024 RMK A01 T01511064  RH  022%=      5-min Rain = 0
KARS 132355Z 14011KT 15/M07 A3024 RMK A01 T01501065  RH  022%=      5-min Rain = 0
KARS 140000Z 13010KT 15/M06 A3024 RMK A01 T01501064  RH  022%=      5-min Rain = 0
KARS 140005Z 13009KT 15/M07 A3024 RMK A01 T01481065  RH  022%=      5-min Rain = 0
KARS 140010Z 13012KT 15/M07 A3024 RMK A01 T01461065  RH  023%=      5-min Rain = 0
KARS 140015Z 13012KT 14/M07 A3024 RMK A01 T01441065  RH  023%=      5-min Rain = 0
KARS 140020Z 13011KT 14/M07 A3024 RMK A01 T01421065  RH  023%=      5-min Rain = 0
KARS 140025Z 13009KT 14/M07 A3025 RMK A01 T01401065  RH  024%=      5-min Rain = 0
KARS 140030Z 13009KT 14/M07 A3025 RMK A01 T01381066  RH  024%=      5-min Rain = 0
KARS 140035Z 13008KT 14/M07 A3025 RMK A01 T01361066  RH  024%=      5-min Rain = 0
KARS 140040Z 12009KT 13/M07 A3026 RMK A01 T01331066  RH  024%=      5-min Rain = 0
KARS 140045Z 12011KT 13/M07 A3026 RMK A01 T01311065  RH  025%=      5-min Rain = 0
KARS 140050Z 12010KT 13/M06 A3026 RMK A01 T01281064  RH  026%=      5-min Rain = 0
KARS 140055Z 13009KT 12/M07 A3026 RMK A01 T01241066  RH  026%=      5-min Rain = 0
KARS 140100Z 13009KT 12/M07 A3026 RMK A01 T01201067  RH  026%=      5-min Rain = 0
KARS 140105Z 13008KT 12/M07 A3026 RMK A01 T01151068  RH  027%=      5-min Rain = 0
KARS 140110Z 13008KT 11/M07 A3026 RMK A01 T01121068  RH  028%=      5-min Rain = 0
KARS 140115Z 12008KT 11/M07 A3026 RMK A01 T01081070  RH  028%=      5-min Rain = 0
KARS 140120Z 12009KT 11/M07 A3026 RMK A01 T01071068  RH  029%=      5-min Rain = 0
KARS 140125Z 13009KT 11/M07 A3026 RMK A01 T01061068  RH  029%=      5-min Rain = 0
KARS 140130Z 13009KT 10/M07 A3026 RMK A01 T01041070  RH  029%=      5-min Rain = 0
KARS 140135Z 13009KT 10/M07 A3026 RMK A01 T01001071  RH  029%=      5-min Rain = 0
KARS 140140Z 12009KT 10/M07 A3027 RMK A01 T00981070  RH  030%=      5-min Rain = 0
KARS 140145Z 12008KT 10/M07 A3027 RMK A01 T00971070  RH  030%=      5-min Rain = 0
KARS 140150Z 11008KT 09/M07 A3027 RMK A01 T00941071  RH  031%=      5-min Rain = 0
KARS 140155Z 11007KT 09/M07 A3027 RMK A01 T00891072  RH  031%=      5-min Rain = 0
KARS 140200Z 12008KT 09/M07 A3028 RMK A01 T00861072  RH  032%=      5-min Rain = 0
KARS 140205Z 12007KT 09/M07 A3028 RMK A01 T00861073  RH  032%=      5-min Rain = 0
KARS 140210Z 11007KT 08/M07 A3028 RMK A01 T00841074  RH  032%=      5-min Rain = 0
KARS 140215Z 11007KT 08/M08 A3028 RMK A01 T00801075  RH  033%=      5-min Rain = 0
KARS 140220Z 12008KT 08/M07 A3028 RMK A01 T00791074  RH  033%=      5-min Rain = 0
KARS 140225Z 12008KT 08/M07 A3028 RMK A01 T00801074  RH  033%=      5-min Rain = 0
KARS 140230Z 12007KT 08/M08 A3028 RMK A01 T00791075  RH  033%=      5-min Rain = 0
KARS 140235Z 12007KT 08/M08 A3029 RMK A01 T00781076  RH  033%=      5-min Rain = 0
KARS 140240Z 12007KT 08/M08 A3029 RMK A01 T00761077  RH  033%=      5-min Rain = 0
KARS 140245Z 12007KT 07/M08 A3029 RMK A01 T00741078  RH  033%=      5-min Rain = 0
KARS 140250Z 12007KT 07/M08 A3029 RMK A01 T00721078  RH  033%=      5-min Rain = 0
KARS 140255Z 12008KT 07/M08 A3029 RMK A01 T00711078  RH  034%=      5-min Rain = 0
KARS 140300Z 12007KT 07/M08 A3029 RMK A01 T00701077  RH  034%=      5-min Rain = 0
KARS 140305Z 12007KT 07/M08 A303 RMK A01 T00681076  RH  035%=      5-min Rain = 0
KARS 140310Z 12008KT 07/M08 A303 RMK A01 T00661075  RH  036%=      5-min Rain = 0
KARS 140315Z 12008KT 06/M07 A303 RMK A01 T00641074  RH  036%=      5-min Rain = 0
KARS 140320Z 12007KT 06/M07 A303 RMK A01 T00621074  RH  037%=      5-min Rain = 0
KARS 140325Z 12007KT 06/M07 A303 RMK A01 T00591074  RH  038%=      5-min Rain = 0
KARS 140330Z 12008KT 06/M07 A303 RMK A01 T00611073  RH  038%=      5-min Rain = 0
KARS 140335Z 12007KT 06/M07 A3031 RMK A01 T00611074  RH  037%=      5-min Rain = 0
KARS 140340Z 12007KT 06/M07 A3031 RMK A01 T00581074  RH  038%=      5-min Rain = 0
KARS 140345Z 12007KT 06/M07 A303 RMK A01 T00561074  RH  039%=      5-min Rain = 0
KARS 140350Z 12007KT 05/M07 A3031 RMK A01 T00541074  RH  039%=      5-min Rain = 0
KARS 140355Z 12007KT 05/M07 A3031 RMK A01 T00521074  RH  040%=      5-min Rain = 0
KARS 140400Z 12007KT 05/M07 A303 RMK A01 T00501074  RH  040%=      5-min Rain = 0
KARS 140405Z 13007KT 05/M08 A303 RMK A01 T00471075  RH  041%=      5-min Rain = 0
KARS 140410Z 12007KT 05/M08 A303 RMK A01 T00461075  RH  041%=      5-min Rain = 0
KARS 140415Z 12007KT 05/M07 A303 RMK A01 T00461074  RH  041%=      5-min Rain = 0
KARS 140420Z 13007KT 05/M07 A303 RMK A01 T00461074  RH  041%=      5-min Rain = 0
KARS 140425Z 13008KT 05/M07 A303 RMK A01 T00461074  RH  041%=      5-min Rain = 0
KARS 140430Z 13008KT 05/M08 A303 RMK A01 T00451075  RH  041%=      5-min Rain = 0
KARS 140435Z 13008KT 05/M08 A303 RMK A01 T00451075  RH  041%=      5-min Rain = 0
KARS 140440Z 12008KT 05/M07 A303 RMK A01 T00461074  RH  042%=      5-min Rain = 0
KARS 140445Z 12009KT 05/M07 A303 RMK A01 T00461073  RH  042%=      5-min Rain = 0
KARS 140450Z 12009KT 05/M07 A303 RMK A01 T00471073  RH  042%=      5-min Rain = 0
KARS 140455Z 13008KT 05/M07 A303 RMK A01 T00471072  RH  042%=      5-min Rain = 0

Page generated in 0.0159 seconds.